createdAt,value
2023-01-26T00:00:04.823Z,102003.72
2023-01-26T00:02:51.314Z,101998.31
2023-01-26T00:05:38.341Z,101989.28
2023-01-26T00:08:26.515Z,101988.81
2023-01-26T00:11:18.307Z,101980.38
2023-01-26T00:14:05.011Z,101975.03
2023-01-26T00:16:55.711Z,101967.22
2023-01-26T00:19:42.402Z,101962.78
2023-01-26T00:22:29.140Z,101954.41
2023-01-26T00:25:17.577Z,101947.72
2023-01-26T00:28:04.582Z,101951.97
2023-01-26T00:30:51.331Z,101934.84
2023-01-26T00:33:38.123Z,101942.34
2023-01-26T00:36:25.546Z,101935.56
2023-01-26T00:39:12.101Z,101936.03
2023-01-26T00:42:10.979Z,101932.22
2023-01-26T00:44:57.538Z,101934.75
2023-01-26T00:47:44.972Z,101928.59
2023-01-26T00:50:31.781Z,101933.94
2023-01-26T00:53:18.618Z,101932.22
2023-01-26T00:56:07.536Z,101940.13
2023-01-26T00:58:55.440Z,101936.97
2023-01-26T01:01:42.344Z,101937.84
2023-01-26T01:04:29.920Z,101939.44
2023-01-26T01:07:16.671Z,101936.78
2023-01-26T01:10:03.614Z,101937.50
2023-01-26T01:12:52.988Z,101939.44
2023-01-26T01:15:41.276Z,101931.56
2023-01-26T01:18:28.295Z,101922.81
2023-01-26T01:21:17.648Z,101925.91
2023-01-26T01:24:04.813Z,101918.94
2023-01-26T01:26:52.781Z,101910.00
2023-01-26T01:29:39.478Z,101909.19
2023-01-26T01:32:27.792Z,101907.09
2023-01-26T01:35:14.683Z,101899.69
2023-01-26T01:38:03.687Z,101898.47
2023-01-26T01:40:50.213Z,101905.47
2023-01-26T01:43:38.628Z,101905.59
2023-01-26T01:46:33.539Z,101900.28
2023-01-26T01:49:26.117Z,101881.53
2023-01-26T01:52:17.696Z,101895.25
2023-01-26T01:55:07.632Z,101898.00
2023-01-26T01:57:59.033Z,101893.31
2023-01-26T02:00:45.822Z,101892.91
2023-01-26T02:03:34.253Z,101889.69
2023-01-26T02:06:26.077Z,101882.47
2023-01-26T02:09:30.994Z,101881.69
2023-01-26T02:12:20.787Z,101877.41
2023-01-26T02:15:09.631Z,101875.81
2023-01-26T02:17:56.412Z,101873.88
2023-01-26T02:20:48.048Z,101878.97
2023-01-26T02:24:01.404Z,101863.19
2023-01-26T02:26:49.722Z,101854.88
2023-01-26T02:29:37.226Z,101848.00
2023-01-26T02:32:23.660Z,101852.44
2023-01-26T02:35:10.867Z,101847.81
2023-01-26T02:37:58.020Z,101850.66
2023-01-26T02:40:50.199Z,101851.19
2023-01-26T02:43:40.418Z,101850.22
2023-01-26T02:46:26.956Z,101843.03
2023-01-26T02:49:31.023Z,101839.88
2023-01-26T02:52:19.422Z,101842.50
2023-01-26T02:55:25.187Z,101836.56
2023-01-26T02:58:12.771Z,101829.28
2023-01-26T03:01:00.787Z,101829.59
2023-01-26T03:03:48.216Z,101827.47
2023-01-26T03:06:34.820Z,101817.84
2023-01-26T03:09:21.559Z,101816.94
2023-01-26T03:12:08.675Z,101816.53
2023-01-26T03:15:09.693Z,101816.97
2023-01-26T03:18:36.747Z,101821.75
2023-01-26T03:21:41.067Z,101823.09
2023-01-26T03:24:45.032Z,101825.31
2023-01-26T03:27:37.128Z,101811.56
2023-01-26T03:30:23.632Z,101810.66
2023-01-26T03:33:12.176Z,101811.34
2023-01-26T03:35:59.354Z,101812.69
2023-01-26T03:38:47.257Z,101824.00
2023-01-26T03:41:51.289Z,101829.28
2023-01-26T03:44:55.551Z,101827.66
2023-01-26T03:48:00.628Z,101826.47
2023-01-26T03:51:06.043Z,101828.69
2023-01-26T03:54:10.037Z,101817.56
2023-01-26T03:56:56.842Z,101827.91
2023-01-26T03:59:44.675Z,101829.22
2023-01-26T04:02:54.941Z,101819.84
2023-01-26T04:06:15.434Z,101825.53
2023-01-26T04:09:07.337Z,101819.19
2023-01-26T04:11:53.961Z,101810.13
2023-01-26T04:14:58.372Z,101804.09
2023-01-26T04:18:04.114Z,101807.50
2023-01-26T04:21:09.212Z,101800.91
2023-01-26T04:23:59.193Z,101792.84
2023-01-26T04:26:47.042Z,101790.34
2023-01-26T04:29:37.909Z,101796.25
2023-01-26T04:32:24.495Z,101787.84
2023-01-26T04:35:13.366Z,101785.66
2023-01-26T04:38:00.154Z,101781.91
2023-01-26T04:40:53.674Z,101785.97
2023-01-26T04:43:43.301Z,101779.56
2023-01-26T04:46:30.025Z,101773.28
2023-01-26T04:49:16.815Z,101769.19
2023-01-26T04:52:03.986Z,101780.50
2023-01-26T04:54:50.731Z,101781.00
2023-01-26T04:57:37.672Z,101776.75
2023-01-26T05:00:26.491Z,101765.53
2023-01-26T05:03:18.030Z,101762.28
2023-01-26T05:06:05.218Z,101765.97
2023-01-26T05:08:51.855Z,101769.44
2023-01-26T05:11:38.741Z,101771.41
2023-01-26T05:14:36.744Z,101768.22
2023-01-26T05:17:53.373Z,101766.72
2023-01-26T05:21:03.422Z,101766.31
2023-01-26T05:23:58.267Z,101767.63
2023-01-26T05:27:12.732Z,101766.81
2023-01-26T05:30:01.062Z,101765.84
2023-01-26T05:32:50.189Z,101767.97
2023-01-26T05:35:38.313Z,101766.88
2023-01-26T05:38:35.517Z,101764.66
2023-01-26T05:41:23.238Z,101758.97
2023-01-26T05:44:47.848Z,101752.25
2023-01-26T05:47:37.406Z,101759.44
2023-01-26T05:50:24.061Z,101607.13
2023-01-26T05:53:31.819Z,101756.13
2023-01-26T05:56:18.567Z,101757.50
2023-01-26T05:59:10.786Z,101761.63
2023-01-26T06:01:57.555Z,101762.94
2023-01-26T06:04:45.428Z,101778.13
2023-01-26T06:07:32.363Z,101777.03
2023-01-26T06:10:29.301Z,101781.13
2023-01-26T06:13:24.521Z,101774.63
2023-01-26T06:16:22.600Z,101786.03
2023-01-26T06:19:16.135Z,101780.34
2023-01-26T06:22:09.153Z,101775.91
2023-01-26T06:24:57.952Z,101784.28
2023-01-26T06:27:46.107Z,101784.53
2023-01-26T06:30:40.546Z,101790.75
2023-01-26T06:33:32.367Z,101786.41
2023-01-26T06:36:19.261Z,101787.13
2023-01-26T06:39:08.294Z,101782.91
2023-01-26T06:41:55.201Z,101785.03
2023-01-26T06:44:43.741Z,101780.91
2023-01-26T06:47:31.239Z,101776.38
2023-01-26T06:50:21.286Z,101778.22
2023-01-26T06:53:27.626Z,101778.06
2023-01-26T06:56:34.242Z,101784.84
2023-01-26T06:59:40.239Z,101785.53
2023-01-26T07:02:54.713Z,101788.09
2023-01-26T07:05:41.389Z,101787.25
2023-01-26T07:08:27.917Z,101788.72
2023-01-26T07:11:15.215Z,101788.34
2023-01-26T07:14:01.928Z,101791.69
2023-01-26T07:16:48.796Z,101788.47
2023-01-26T07:19:37.485Z,101768.09
2023-01-26T07:22:24.533Z,101783.19
2023-01-26T07:25:11.230Z,101791.84
2023-01-26T07:27:58.443Z,101732.56
2023-01-26T07:30:45.290Z,101795.97
2023-01-26T07:33:32.716Z,101792.69
2023-01-26T07:36:20.743Z,101787.53
2023-01-26T07:39:08.620Z,101794.19
2023-01-26T07:41:55.396Z,101788.22
2023-01-26T07:45:07.882Z,101790.88
2023-01-26T07:47:55.698Z,101789.06
2023-01-26T07:50:42.173Z,101789.91
2023-01-26T07:53:31.008Z,101793.34
2023-01-26T07:56:20.677Z,101794.09
2023-01-26T07:59:07.606Z,101797.69
2023-01-26T08:01:54.324Z,101793.34
2023-01-26T08:04:40.988Z,101795.06
2023-01-26T08:07:27.919Z,101799.06
2023-01-26T08:10:16.145Z,101804.13
2023-01-26T08:13:03.154Z,101801.78
2023-01-26T08:15:50.043Z,101810.03
2023-01-26T08:18:36.778Z,101807.56
2023-01-26T08:21:23.622Z,101796.41
2023-01-26T08:24:12.858Z,101804.13
2023-01-26T08:27:01.359Z,101798.09
2023-01-26T08:29:47.936Z,101806.78
2023-01-26T08:32:34.568Z,101797.03
2023-01-26T08:35:21.334Z,101796.81
2023-01-26T08:38:08.188Z,101797.19
2023-01-26T08:40:54.903Z,101799.84
2023-01-26T08:43:42.979Z,101798.25
2023-01-26T08:46:29.778Z,101805.59
2023-01-26T08:49:16.485Z,101800.06
2023-01-26T08:52:04.201Z,101807.34
2023-01-26T08:54:51.051Z,101801.28
2023-01-26T08:57:37.661Z,101796.72
2023-01-26T09:00:26.587Z,101810.84
2023-01-26T09:03:13.657Z,101819.75
2023-01-26T09:06:01.423Z,101810.19
2023-01-26T09:08:48.071Z,101817.06
2023-01-26T09:11:34.620Z,101818.66
2023-01-26T09:14:21.396Z,101810.84
2023-01-26T09:17:09.496Z,101815.91
2023-01-26T09:19:56.342Z,101815.91
2023-01-26T09:22:44.032Z,101818.25
2023-01-26T09:25:30.735Z,101815.81
2023-01-26T09:28:17.444Z,101813.63
2023-01-26T09:31:05.995Z,101809.28
2023-01-26T09:33:54.349Z,101804.19
2023-01-26T09:36:44.125Z,101801.63
2023-01-26T09:39:33.274Z,101801.03
2023-01-26T09:42:49.118Z,101799.63
2023-01-26T09:45:42.886Z,101808.19
2023-01-26T09:48:42.219Z,101798.31
2023-01-26T09:51:36.184Z,101802.72
2023-01-26T09:54:28.853Z,101806.25
2023-01-26T09:57:18.446Z,101742.53
2023-01-26T10:00:09.714Z,101752.72
2023-01-26T10:03:06.490Z,101813.44
2023-01-26T10:05:59.088Z,101806.56
2023-01-26T10:09:14.149Z,101804.06
2023-01-26T10:12:04.277Z,101796.66
2023-01-26T10:14:56.469Z,101805.94
2023-01-26T10:17:46.281Z,101805.47
2023-01-26T10:20:36.343Z,101783.34
2023-01-26T10:23:26.813Z,101795.78
2023-01-26T10:26:17.428Z,101638.19
2023-01-26T10:29:05.647Z,101788.47
2023-01-26T10:31:52.381Z,101773.00
2023-01-26T10:34:41.174Z,101774.66
2023-01-26T10:37:30.890Z,101765.03
2023-01-26T10:40:18.575Z,101766.03
2023-01-26T10:43:06.423Z,101751.22
2023-01-26T10:45:53.248Z,101757.06
2023-01-26T10:48:39.795Z,101749.16
2023-01-26T10:51:29.740Z,101737.34
2023-01-26T10:54:21.916Z,101742.59
2023-01-26T10:57:18.581Z,101732.94
2023-01-26T11:00:13.547Z,101745.00
2023-01-26T11:03:06.574Z,101740.50
2023-01-26T11:06:07.201Z,101742.38
2023-01-26T11:08:53.977Z,101740.69
2023-01-26T11:11:41.219Z,101739.03
2023-01-26T11:14:28.700Z,101739.91
2023-01-26T11:17:27.315Z,101741.38
2023-01-26T11:20:46.817Z,101732.09
2023-01-26T11:23:49.876Z,101736.63
2023-01-26T11:27:03.139Z,101744.41
2023-01-26T11:30:28.311Z,101741.81
2023-01-26T11:33:26.732Z,101728.69
2023-01-26T11:36:23.752Z,101724.28
2023-01-26T11:39:20.398Z,101723.38
2023-01-26T11:42:21.208Z,101726.75
2023-01-26T11:45:23.135Z,101718.81
2023-01-26T11:48:22.813Z,101708.41
2023-01-26T11:51:21.724Z,101720.78
2023-01-26T11:54:32.274Z,101716.13
2023-01-26T11:57:28.735Z,101720.09
2023-01-26T12:00:29.620Z,101707.19
2023-01-26T12:03:24.782Z,101713.25
2023-01-26T12:06:19.754Z,101699.41
2023-01-26T12:09:19.019Z,101692.50
2023-01-26T12:12:11.402Z,101685.56
2023-01-26T12:15:05.945Z,101688.28
2023-01-26T12:18:00.829Z,101685.41
2023-01-26T12:20:51.967Z,101683.63
2023-01-26T12:23:45.683Z,101675.13
2023-01-26T12:26:39.521Z,101675.03
2023-01-26T12:29:31.577Z,101663.81
2023-01-26T12:32:18.496Z,101657.19
2023-01-26T12:35:05.647Z,101655.84
2023-01-26T12:38:16.964Z,101653.94
2023-01-26T12:41:12.472Z,101656.38
2023-01-26T12:44:11.814Z,101653.03
2023-01-26T12:47:05.113Z,101653.09
2023-01-26T12:49:59.836Z,101663.69
2023-01-26T12:52:52.751Z,101653.16
2023-01-26T12:55:45.637Z,101657.34
2023-01-26T12:58:39.088Z,101664.75
2023-01-26T13:01:38.482Z,101660.00
2023-01-26T13:04:25.620Z,101667.88
2023-01-26T13:07:30.449Z,101668.47
2023-01-26T13:10:45.483Z,101666.56
2023-01-26T13:13:36.206Z,101673.63
2023-01-26T13:16:34.630Z,101670.84
2023-01-26T13:19:54.995Z,101670.94
2023-01-26T13:22:42.737Z,101675.31
2023-01-26T13:25:35.175Z,101673.66
2023-01-26T13:28:29.182Z,101675.09
2023-01-26T13:31:34.110Z,101682.19
2023-01-26T13:34:25.615Z,101688.28
2023-01-26T13:37:17.605Z,101684.88
2023-01-26T13:40:14.891Z,101689.38
2023-01-26T13:43:20.770Z,101692.00
2023-01-26T13:46:20.883Z,101688.41
2023-01-26T13:49:25.012Z,101688.19
2023-01-26T13:52:19.142Z,101687.34
2023-01-26T13:55:21.976Z,101689.03
2023-01-26T13:58:13.070Z,101690.69
2023-01-26T14:01:00.916Z,101688.91
2023-01-26T14:04:05.880Z,101686.41
2023-01-26T14:06:57.852Z,101689.84
2023-01-26T14:09:47.913Z,101694.84
2023-01-26T14:12:37.395Z,101691.53
2023-01-26T14:15:27.152Z,101666.44
2023-01-26T14:18:23.285Z,101639.34
2023-01-26T14:21:20.089Z,101688.75
2023-01-26T14:24:10.559Z,101687.59
2023-01-26T14:26:58.646Z,101687.84
2023-01-26T14:29:47.432Z,101691.41
2023-01-26T14:32:34.928Z,101692.25
2023-01-26T14:35:24.269Z,101700.59
2023-01-26T14:38:20.327Z,101688.38
2023-01-26T14:41:14.525Z,101689.97
2023-01-26T14:44:08.115Z,101692.91
2023-01-26T14:46:59.645Z,101697.63
2023-01-26T14:49:50.452Z,101694.38
2023-01-26T14:52:40.034Z,101620.72
2023-01-26T14:55:30.588Z,101694.84
2023-01-26T14:58:22.391Z,101688.97
2023-01-26T15:01:09.164Z,101689.63
2023-01-26T15:04:04.904Z,101683.66
2023-01-26T15:06:51.423Z,101687.16
2023-01-26T15:09:38.187Z,101687.09
2023-01-26T15:12:26.831Z,101693.03
2023-01-26T15:15:16.690Z,101697.63
2023-01-26T15:18:06.871Z,101697.78
2023-01-26T15:21:00.813Z,101695.88
2023-01-26T15:23:51.892Z,101701.28
2023-01-26T15:26:38.521Z,101701.50
2023-01-26T15:29:29.515Z,101697.16
2023-01-26T15:32:29.497Z,101697.84
2023-01-26T15:35:22.487Z,101692.00
2023-01-26T15:38:11.939Z,101694.97
2023-01-26T15:40:59.264Z,101695.94
2023-01-26T15:43:46.693Z,101700.00
2023-01-26T15:46:35.896Z,101695.19
2023-01-26T15:49:24.029Z,101651.34
2023-01-26T15:52:15.700Z,101709.59
2023-01-26T15:55:03.308Z,101710.94
2023-01-26T15:57:50.809Z,101714.97
2023-01-26T16:00:39.121Z,101715.25
2023-01-26T16:03:29.919Z,101720.13
2023-01-26T16:06:26.124Z,101726.47
2023-01-26T16:09:14.123Z,101724.88
2023-01-26T16:12:01.232Z,101718.88
2023-01-26T16:14:47.607Z,101727.63
2023-01-26T16:17:34.328Z,101717.00
2023-01-26T16:20:22.552Z,101714.38
2023-01-26T16:23:18.478Z,101716.13
2023-01-26T16:26:05.182Z,101698.28
2023-01-26T16:28:51.518Z,101704.63
2023-01-26T16:31:38.417Z,101700.94
2023-01-26T16:34:25.285Z,101701.09
2023-01-26T16:37:13.361Z,101702.94
2023-01-26T16:40:00.169Z,101704.00
2023-01-26T16:42:50.783Z,101704.47
2023-01-26T16:45:38.378Z,101703.13
2023-01-26T16:48:25.534Z,101710.19
2023-01-26T16:51:17.906Z,101712.00
2023-01-26T16:54:06.654Z,101705.78
2023-01-26T16:56:53.746Z,101710.09
2023-01-26T16:59:40.927Z,101708.25
2023-01-26T17:02:35.208Z,101708.94
2023-01-26T17:05:23.222Z,101700.22
2023-01-26T17:08:09.997Z,101701.13
2023-01-26T17:11:02.533Z,101695.41
2023-01-26T17:13:50.410Z,101697.13
2023-01-26T17:16:37.235Z,101702.53
2023-01-26T17:19:23.916Z,101708.78
2023-01-26T17:22:10.616Z,101704.38
2023-01-26T17:24:58.309Z,101700.19
2023-01-26T17:27:46.534Z,101643.66
2023-01-26T17:30:33.342Z,101700.94
2023-01-26T17:33:20.436Z,101703.25
2023-01-26T17:36:08.443Z,101707.78
2023-01-26T17:38:55.395Z,101711.44
2023-01-26T17:41:42.220Z,101717.41
2023-01-26T17:44:30.409Z,101716.44
2023-01-26T17:47:21.121Z,101708.75
2023-01-26T17:50:10.211Z,101715.56
2023-01-26T17:52:59.042Z,101722.84
2023-01-26T17:55:46.835Z,101561.56
2023-01-26T17:58:34.046Z,101735.59
2023-01-26T18:01:23.722Z,101730.59
2023-01-26T18:04:10.714Z,101723.38
2023-01-26T18:06:57.432Z,101717.78
2023-01-26T18:09:44.348Z,101723.28
2023-01-26T18:12:31.052Z,101721.31
2023-01-26T18:15:18.054Z,101724.78
2023-01-26T18:18:06.635Z,101726.84
2023-01-26T18:20:54.092Z,101725.25
2023-01-26T18:23:40.654Z,101722.06
2023-01-26T18:26:30.109Z,101728.66
2023-01-26T18:29:16.934Z,101726.31
2023-01-26T18:32:03.615Z,101724.75
2023-01-26T18:34:51.989Z,101719.59
2023-01-26T18:37:38.816Z,101730.03
2023-01-26T18:40:33.441Z,101736.06
2023-01-26T18:43:19.929Z,101731.81
2023-01-26T18:46:06.921Z,101740.53
2023-01-26T18:48:54.330Z,101735.16
2023-01-26T18:51:48.000Z,101734.19
2023-01-26T18:54:34.843Z,101739.63
2023-01-26T18:57:21.539Z,101752.53
2023-01-26T19:00:14.247Z,101743.66
2023-01-26T19:03:00.757Z,101752.94
2023-01-26T19:05:48.869Z,101749.06
2023-01-26T19:08:38.251Z,101752.38
2023-01-26T19:11:25.901Z,101672.25
2023-01-26T19:14:12.764Z,101753.41
2023-01-26T19:16:59.793Z,101702.31
2023-01-26T19:19:47.683Z,101752.56
2023-01-26T19:22:34.383Z,101753.09
2023-01-26T19:25:23.258Z,101750.97
2023-01-26T19:28:10.283Z,101752.94
2023-01-26T19:31:04.394Z,101735.53
2023-01-26T19:33:52.374Z,101744.63
2023-01-26T19:36:38.766Z,101740.97
2023-01-26T19:39:26.332Z,101737.91
2023-01-26T19:42:14.500Z,101736.81
2023-01-26T19:45:01.267Z,101748.03
2023-01-26T19:47:48.359Z,101589.66
2023-01-26T19:50:35.193Z,101731.72
2023-01-26T19:53:22.055Z,101738.91
2023-01-26T19:56:11.334Z,101738.53
2023-01-26T19:59:01.550Z,101727.69
2023-01-26T20:01:48.320Z,101737.97
2023-01-26T20:04:35.101Z,101739.41
2023-01-26T20:07:21.753Z,101732.81
2023-01-26T20:10:09.418Z,101738.16
2023-01-26T20:12:57.732Z,101745.84
2023-01-26T20:15:45.660Z,101732.59
2023-01-26T20:18:32.967Z,101731.72
2023-01-26T20:21:19.785Z,101743.19
2023-01-26T20:24:07.649Z,101745.03
2023-01-26T20:26:54.432Z,101743.53
2023-01-26T20:29:40.820Z,101748.28
2023-01-26T20:32:29.174Z,101747.41
2023-01-26T20:35:15.752Z,101760.25
2023-01-26T20:38:02.727Z,101753.22
2023-01-26T20:40:49.466Z,101755.47
2023-01-26T20:43:39.306Z,101751.03
2023-01-26T20:46:26.076Z,101751.13
2023-01-26T20:49:16.568Z,101746.34
2023-01-26T20:52:03.242Z,101745.88
2023-01-26T20:54:50.227Z,101751.97
2023-01-26T20:57:37.071Z,101751.34
2023-01-26T21:00:24.154Z,101748.69
2023-01-26T21:03:10.931Z,101739.97
2023-01-26T21:05:59.154Z,101751.50
2023-01-26T21:08:46.207Z,101739.81
2023-01-26T21:11:33.374Z,101745.00
2023-01-26T21:14:19.713Z,101740.66
2023-01-26T21:17:07.620Z,101735.22
2023-01-26T21:19:54.131Z,101744.44
2023-01-26T21:22:46.746Z,101750.59
2023-01-26T21:25:33.666Z,101737.34
2023-01-26T21:28:20.392Z,101748.94
2023-01-26T21:31:09.608Z,101738.22
2023-01-26T21:33:57.022Z,101588.34
2023-01-26T21:36:43.314Z,101743.19
2023-01-26T21:39:32.032Z,101741.44
2023-01-26T21:42:19.059Z,101738.91
2023-01-26T21:45:24.242Z,101746.47
2023-01-26T21:48:31.799Z,101738.66
2023-01-26T21:51:35.786Z,101751.00
2023-01-26T21:54:22.771Z,101746.56
2023-01-26T21:57:25.918Z,101754.66
2023-01-26T22:00:13.653Z,101754.66
2023-01-26T22:03:00.791Z,101762.50
2023-01-26T22:05:52.940Z,101764.88
2023-01-26T22:08:40.437Z,101758.44
2023-01-26T22:11:27.911Z,101754.63
2023-01-26T22:14:18.926Z,101767.56
2023-01-26T22:17:05.687Z,101766.13
2023-01-26T22:19:53.512Z,101765.88
2023-01-26T22:22:40.085Z,101764.28
2023-01-26T22:25:27.200Z,101762.50
2023-01-26T22:28:14.019Z,101762.31
2023-01-26T22:31:05.017Z,101756.88
2023-01-26T22:33:52.296Z,101754.19
2023-01-26T22:36:39.095Z,101765.66
2023-01-26T22:39:26.634Z,101764.31
2023-01-26T22:42:13.368Z,101763.31
2023-01-26T22:45:00.282Z,101760.34
2023-01-26T22:47:49.091Z,101759.44
2023-01-26T22:50:35.972Z,101757.56
2023-01-26T22:53:22.718Z,101757.31
2023-01-26T22:56:11.585Z,101755.47
2023-01-26T22:59:00.668Z,101748.69
2023-01-26T23:01:47.314Z,101744.50
2023-01-26T23:04:35.619Z,101743.16
2023-01-26T23:07:22.525Z,101743.53
2023-01-26T23:10:10.362Z,101743.53
2023-01-26T23:12:57.413Z,101747.81
2023-01-26T23:15:44.327Z,101741.69
2023-01-26T23:18:31.525Z,101745.50
2023-01-26T23:21:19.865Z,101735.84
2023-01-26T23:24:07.382Z,101747.47
2023-01-26T23:26:54.403Z,101750.88
2023-01-26T23:29:40.961Z,101753.53
2023-01-26T23:32:27.730Z,101752.50
2023-01-26T23:35:15.550Z,101754.63
2023-01-26T23:38:04.150Z,101756.00
2023-01-26T23:40:51.331Z,101752.31
2023-01-26T23:43:38.450Z,101751.38
2023-01-26T23:46:25.309Z,101752.13
2023-01-26T23:49:12.023Z,101744.56
2023-01-26T23:51:59.426Z,101752.25
2023-01-26T23:54:47.590Z,101753.09
2023-01-26T23:57:34.293Z,101743.44
